sensor_id;sensor_type;location;lat;lon;timestamp;pressure;altitude;pressure_sealevel;temperature;humidity
39715;BME280;54166;53.172;-6.552;2023-01-27T00:01:33;101072.66;;;16.58;35.46
39715;BME280;54166;53.172;-6.552;2023-01-27T00:04:00;101070.41;;;16.85;35.74
39715;BME280;54166;53.172;-6.552;2023-01-27T00:06:27;101066.77;;;16.80;35.90
39715;BME280;54166;53.172;-6.552;2023-01-27T00:08:55;101058.70;;;16.79;36.32
39715;BME280;54166;53.172;-6.552;2023-01-27T00:11:22;101055.57;;;16.79;36.67
39715;BME280;54166;53.172;-6.552;2023-01-27T00:13:50;101052.43;;;16.82;36.88
39715;BME280;54166;53.172;-6.552;2023-01-27T00:16:16;101049.49;;;16.81;37.56
39715;BME280;54166;53.172;-6.552;2023-01-27T00:18:43;101048.18;;;16.85;37.85
39715;BME280;54166;53.172;-6.552;2023-01-27T00:21:11;101046.12;;;16.89;38.19
39715;BME280;54166;53.172;-6.552;2023-01-27T00:23:38;101040.88;;;16.93;38.48
39715;BME280;54166;53.172;-6.552;2023-01-27T00:26:08;101039.01;;;16.63;38.97
39715;BME280;54166;53.172;-6.552;2023-01-27T00:28:37;101036.17;;;17.00;38.72
39715;BME280;54166;53.172;-6.552;2023-01-27T00:31:06;101027.81;;;16.68;38.89
39715;BME280;54166;53.172;-6.552;2023-01-27T00:33:33;101026.93;;;17.01;38.66
39715;BME280;54166;53.172;-6.552;2023-01-27T00:36:02;101024.50;;;17.05;38.69
39715;BME280;54166;53.172;-6.552;2023-01-27T00:38:32;101022.00;;;17.04;39.23
39715;BME280;54166;53.172;-6.552;2023-01-27T00:41:00;101019.09;;;17.02;39.54
39715;BME280;54166;53.172;-6.552;2023-01-27T00:43:27;101018.09;;;17.01;39.55
39715;BME280;54166;53.172;-6.552;2023-01-27T00:45:54;101019.59;;;17.02;39.62
39715;BME280;54166;53.172;-6.552;2023-01-27T00:48:21;101018.23;;;17.03;39.73
39715;BME280;54166;53.172;-6.552;2023-01-27T00:50:48;101012.29;;;16.70;39.83
39715;BME280;54166;53.172;-6.552;2023-01-27T00:53:15;101008.94;;;17.03;39.91
39715;BME280;54166;53.172;-6.552;2023-01-27T00:55:42;101006.39;;;17.05;39.99
39715;BME280;54166;53.172;-6.552;2023-01-27T00:58:09;101005.42;;;17.08;39.97
39715;BME280;54166;53.172;-6.552;2023-01-27T01:00:36;101004.79;;;16.75;39.98
39715;BME280;54166;53.172;-6.552;2023-01-27T01:03:03;101004.31;;;17.10;40.07
39715;BME280;54166;53.172;-6.552;2023-01-27T01:05:30;101004.68;;;17.11;40.07
39715;BME280;54166;53.172;-6.552;2023-01-27T01:07:57;101006.14;;;17.13;40.20
39715;BME280;54166;53.172;-6.552;2023-01-27T01:10:25;101007.47;;;17.15;40.13
39715;BME280;54166;53.172;-6.552;2023-01-27T01:12:52;101008.54;;;17.17;40.23
39715;BME280;54166;53.172;-6.552;2023-01-27T01:15:19;101008.33;;;17.19;40.33
39715;BME280;54166;53.172;-6.552;2023-01-27T01:17:47;101008.19;;;17.20;40.39
39715;BME280;54166;53.172;-6.552;2023-01-27T01:20:15;101011.74;;;17.23;40.42
39715;BME280;54166;53.172;-6.552;2023-01-27T01:22:42;101007.18;;;17.27;40.52
39715;BME280;54166;53.172;-6.552;2023-01-27T01:25:09;101008.18;;;17.29;40.51
39715;BME280;54166;53.172;-6.552;2023-01-27T01:27:37;101011.86;;;17.28;40.61
39715;BME280;54166;53.172;-6.552;2023-01-27T01:30:05;101012.20;;;17.30;40.52
39715;BME280;54166;53.172;-6.552;2023-01-27T01:32:33;101006.80;;;17.35;40.45
39715;BME280;54166;53.172;-6.552;2023-01-27T01:35:00;101000.00;;;17.37;40.41
39715;BME280;54166;53.172;-6.552;2023-01-27T01:37:28;100993.29;;;17.06;40.42
39715;BME280;54166;53.172;-6.552;2023-01-27T01:39:55;100993.38;;;17.44;40.40
39715;BME280;54166;53.172;-6.552;2023-01-27T01:42:22;100991.19;;;17.13;40.38
39715;BME280;54166;53.172;-6.552;2023-01-27T01:44:53;100989.16;;;17.16;40.32
39715;BME280;54166;53.172;-6.552;2023-01-27T01:47:54;100991.22;;;17.12;40.49
39715;BME280;54166;53.172;-6.552;2023-01-27T01:50:21;100984.44;;;17.50;40.50
39715;BME280;54166;53.172;-6.552;2023-01-27T01:52:48;100979.29;;;17.22;40.41
39715;BME280;54166;53.172;-6.552;2023-01-27T01:55:15;100980.82;;;17.57;40.42
39715;BME280;54166;53.172;-6.552;2023-01-27T01:57:43;100976.30;;;17.27;40.31
39715;BME280;54166;53.172;-6.552;2023-01-27T02:00:12;100977.08;;;17.30;40.28
39715;BME280;54166;53.172;-6.552;2023-01-27T02:02:40;100977.86;;;17.65;40.29
39715;BME280;54166;53.172;-6.552;2023-01-27T02:05:10;100978.34;;;17.68;40.24
39715;BME280;54166;53.172;-6.552;2023-01-27T02:07:44;100977.46;;;17.70;40.20
39715;BME280;54166;53.172;-6.552;2023-01-27T02:10:13;100973.08;;;16.97;40.21
39715;BME280;54166;53.172;-6.552;2023-01-27T02:12:40;100969.07;;;17.39;40.16
39715;BME280;54166;53.172;-6.552;2023-01-27T02:15:10;100967.62;;;17.74;40.20
39715;BME280;54166;53.172;-6.552;2023-01-27T02:17:37;100967.79;;;17.74;40.12
39715;BME280;54166;53.172;-6.552;2023-01-27T02:20:08;100968.43;;;17.42;40.06
39715;BME280;54166;53.172;-6.552;2023-01-27T02:22:48;100966.35;;;17.53;39.95
39715;BME280;54166;53.172;-6.552;2023-01-27T02:25:22;100960.59;;;17.80;40.02
39715;BME280;54166;53.172;-6.552;2023-01-27T02:27:51;100956.81;;;17.77;40.07
39715;BME280;54166;53.172;-6.552;2023-01-27T02:30:18;100960.39;;;17.81;40.01
39715;BME280;54166;53.172;-6.552;2023-01-27T02:32:46;100963.12;;;17.50;39.88
39715;BME280;54166;53.172;-6.552;2023-01-27T02:35:18;100964.15;;;17.14;39.88
39715;BME280;54166;53.172;-6.552;2023-01-27T02:37:49;100962.66;;;17.55;39.82
39715;BME280;54166;53.172;-6.552;2023-01-27T02:40:19;100959.97;;;17.91;39.76
39715;BME280;54166;53.172;-6.552;2023-01-27T02:42:47;100953.72;;;17.92;39.71
39715;BME280;54166;53.172;-6.552;2023-01-27T02:45:15;100953.07;;;17.62;39.64
39715;BME280;54166;53.172;-6.552;2023-01-27T02:47:42;100952.39;;;17.25;39.55
39715;BME280;54166;53.172;-6.552;2023-01-27T02:50:10;100949.58;;;17.67;39.53
39715;BME280;54166;53.172;-6.552;2023-01-27T02:52:38;100949.96;;;17.27;39.42
39715;BME280;54166;53.172;-6.552;2023-01-27T02:55:06;100945.27;;;18.03;39.41
39715;BME280;54166;53.172;-6.552;2023-01-27T02:57:34;100945.07;;;17.71;39.37
39715;BME280;54166;53.172;-6.552;2023-01-27T03:00:01;100950.37;;;17.73;39.22
39715;BME280;54166;53.172;-6.552;2023-01-27T03:02:28;100957.36;;;17.73;39.23
39715;BME280;54166;53.172;-6.552;2023-01-27T03:04:56;100955.91;;;18.09;39.14
39715;BME280;54166;53.172;-6.552;2023-01-27T03:07:23;100952.85;;;17.77;39.10
39715;BME280;54166;53.172;-6.552;2023-01-27T03:09:51;100956.03;;;17.79;39.01
39715;BME280;54166;53.172;-6.552;2023-01-27T03:12:18;100961.70;;;18.14;39.01
39715;BME280;54166;53.172;-6.552;2023-01-27T03:14:45;100961.51;;;17.83;38.98
39715;BME280;54166;53.172;-6.552;2023-01-27T03:17:13;100957.69;;;18.19;38.88
39715;BME280;54166;53.172;-6.552;2023-01-27T03:19:40;100956.65;;;17.47;38.80
39715;BME280;54166;53.172;-6.552;2023-01-27T03:22:08;100952.98;;;18.22;38.77
39715;BME280;54166;53.172;-6.552;2023-01-27T03:24:35;100950.52;;;18.24;38.73
39715;BME280;54166;53.172;-6.552;2023-01-27T03:27:02;100953.65;;;17.51;38.65
39715;BME280;54166;53.172;-6.552;2023-01-27T03:29:30;100951.08;;;17.50;38.60
39715;BME280;54166;53.172;-6.552;2023-01-27T03:31:57;100945.23;;;17.92;38.53
39715;BME280;54166;53.172;-6.552;2023-01-27T03:34:24;100941.02;;;18.25;38.47
39715;BME280;54166;53.172;-6.552;2023-01-27T03:36:51;100939.91;;;17.92;38.44
39715;BME280;54166;53.172;-6.552;2023-01-27T03:39:18;100940.87;;;17.94;38.39
39715;BME280;54166;53.172;-6.552;2023-01-27T03:41:45;100936.15;;;17.94;38.31
39715;BME280;54166;53.172;-6.552;2023-01-27T03:44:12;100929.34;;;17.94;38.30
39715;BME280;54166;53.172;-6.552;2023-01-27T03:46:40;100927.68;;;17.95;38.22
39715;BME280;54166;53.172;-6.552;2023-01-27T03:49:07;100928.28;;;17.54;38.16
39715;BME280;54166;53.172;-6.552;2023-01-27T03:51:35;100924.67;;;17.95;38.05
39715;BME280;54166;53.172;-6.552;2023-01-27T03:54:02;100925.74;;;18.30;37.94
39715;BME280;54166;53.172;-6.552;2023-01-27T03:56:29;100930.01;;;17.54;37.90
39715;BME280;54166;53.172;-6.552;2023-01-27T03:58:57;100927.10;;;17.92;37.90
39715;BME280;54166;53.172;-6.552;2023-01-27T04:01:24;100929.08;;;17.53;37.83
39715;BME280;54166;53.172;-6.552;2023-01-27T04:03:52;100927.99;;;17.92;37.76
39715;BME280;54166;53.172;-6.552;2023-01-27T04:06:21;100922.68;;;17.92;37.73
39715;BME280;54166;53.172;-6.552;2023-01-27T04:08:48;100919.36;;;17.51;37.72
39715;BME280;54166;53.172;-6.552;2023-01-27T04:11:15;100918.43;;;17.90;37.63
39715;BME280;54166;53.172;-6.552;2023-01-27T04:13:43;100918.97;;;18.24;37.62
39715;BME280;54166;53.172;-6.552;2023-01-27T04:16:10;100924.85;;;17.92;37.56
39715;BME280;54166;53.172;-6.552;2023-01-27T04:18:37;100926.41;;;17.48;37.55
39715;BME280;54166;53.172;-6.552;2023-01-27T04:21:05;100924.88;;;18.22;37.48
39715;BME280;54166;53.172;-6.552;2023-01-27T04:23:32;100920.56;;;17.89;37.46
39715;BME280;54166;53.172;-6.552;2023-01-27T04:25:59;100916.19;;;17.88;37.39
39715;BME280;54166;53.172;-6.552;2023-01-27T04:28:26;100915.46;;;17.86;37.36
39715;BME280;54166;53.172;-6.552;2023-01-27T04:30:53;100910.60;;;17.43;37.34
39715;BME280;54166;53.172;-6.552;2023-01-27T04:33:20;100909.05;;;17.83;37.27
39715;BME280;54166;53.172;-6.552;2023-01-27T04:35:47;100906.29;;;17.41;37.22
39715;BME280;54166;53.172;-6.552;2023-01-27T04:38:14;100905.48;;;17.80;37.28
39715;BME280;54166;53.172;-6.552;2023-01-27T04:40:44;100908.10;;;17.39;37.19
39715;BME280;54166;53.172;-6.552;2023-01-27T04:43:11;100907.54;;;17.41;37.13
39715;BME280;54166;53.172;-6.552;2023-01-27T04:45:39;100909.72;;;17.79;37.11
39715;BME280;54166;53.172;-6.552;2023-01-27T04:48:06;100910.76;;;18.13;37.05
39715;BME280;54166;53.172;-6.552;2023-01-27T04:50:33;100909.92;;;18.13;37.01
39715;BME280;54166;53.172;-6.552;2023-01-27T04:53:00;100909.04;;;17.77;36.92
39715;BME280;54166;53.172;-6.552;2023-01-27T04:57:31;100908.20;;;18.82;37.23
39715;BME280;54166;53.172;-6.552;2023-01-27T04:59:58;100913.92;;;17.54;37.12
39715;BME280;54166;53.172;-6.552;2023-01-27T05:02:25;100918.52;;;17.62;36.95
39715;BME280;54166;53.172;-6.552;2023-01-27T05:04:53;100914.55;;;17.64;36.90
39715;BME280;54166;53.172;-6.552;2023-01-27T05:07:20;100912.83;;;17.25;36.81
39715;BME280;54166;53.172;-6.552;2023-01-27T05:09:47;100912.73;;;17.65;36.79
39715;BME280;54166;53.172;-6.552;2023-01-27T05:12:14;100909.88;;;17.65;36.78
39715;BME280;54166;53.172;-6.552;2023-01-27T05:14:41;100904.77;;;17.63;36.74
39715;BME280;54166;53.172;-6.552;2023-01-27T05:17:08;100902.66;;;17.63;36.65
39715;BME280;54166;53.172;-6.552;2023-01-27T05:19:35;100894.99;;;17.61;36.61
39715;BME280;54166;53.172;-6.552;2023-01-27T05:22:03;100893.56;;;17.94;36.54
39715;BME280;54166;53.172;-6.552;2023-01-27T05:24:30;100898.08;;;17.19;36.53
39715;BME280;54166;53.172;-6.552;2023-01-27T05:26:56;100904.90;;;17.17;36.52
39715;BME280;54166;53.172;-6.552;2023-01-27T05:29:24;100911.54;;;17.55;36.49
39715;BME280;54166;53.172;-6.552;2023-01-27T05:31:51;100910.83;;;17.14;36.47
39715;BME280;54166;53.172;-6.552;2023-01-27T05:34:18;100904.00;;;17.53;36.37
39715;BME280;54166;53.172;-6.552;2023-01-27T05:36:45;100904.29;;;17.50;36.36
39715;BME280;54166;53.172;-6.552;2023-01-27T05:39:13;100905.49;;;17.49;36.30
39715;BME280;54166;53.172;-6.552;2023-01-27T05:41:41;100906.88;;;17.54;36.27
39715;BME280;54166;53.172;-6.552;2023-01-27T05:44:10;100910.01;;;17.87;36.27
39715;BME280;54166;53.172;-6.552;2023-01-27T05:46:39;100907.87;;;17.84;36.23
39715;BME280;54166;53.172;-6.552;2023-01-27T05:49:07;100908.44;;;17.48;36.18
39715;BME280;54166;53.172;-6.552;2023-01-27T05:51:35;100911.29;;;17.81;36.18
39715;BME280;54166;53.172;-6.552;2023-01-27T05:54:04;100918.45;;;17.03;36.16
39715;BME280;54166;53.172;-6.552;2023-01-27T05:56:31;100923.25;;;17.02;36.28
39715;BME280;54166;53.172;-6.552;2023-01-27T05:58:59;100924.02;;;17.40;36.21
39715;BME280;54166;53.172;-6.552;2023-01-27T06:01:28;100924.49;;;17.72;36.19
39715;BME280;54166;53.172;-6.552;2023-01-27T06:03:56;100923.12;;;17.36;36.14
39715;BME280;54166;53.172;-6.552;2023-01-27T06:06:25;100923.83;;;17.68;36.11
39715;BME280;54166;53.172;-6.552;2023-01-27T06:08:53;100924.23;;;17.65;36.07
39715;BME280;54166;53.172;-6.552;2023-01-27T06:11:21;100923.53;;;17.31;36.10
39715;BME280;54166;53.172;-6.552;2023-01-27T06:13:50;100926.00;;;17.28;36.07
39715;BME280;54166;53.172;-6.552;2023-01-27T06:16:20;100923.69;;;17.25;36.03
39715;BME280;54166;53.172;-6.552;2023-01-27T06:18:48;100921.78;;;17.56;36.01
39715;BME280;54166;53.172;-6.552;2023-01-27T06:21:15;100919.90;;;17.52;36.06
39715;BME280;54166;53.172;-6.552;2023-01-27T06:23:43;100918.65;;;17.50;36.08
39715;BME280;54166;53.172;-6.552;2023-01-27T06:26:12;100917.48;;;17.19;35.99
39715;BME280;54166;53.172;-6.552;2023-01-27T06:28:39;100917.95;;;16.76;35.95
39715;BME280;54166;53.172;-6.552;2023-01-27T06:31:08;100914.06;;;17.13;35.97
39715;BME280;54166;53.172;-6.552;2023-01-27T06:33:35;100907.79;;;17.09;35.99
39715;BME280;54166;53.172;-6.552;2023-01-27T06:36:04;100906.06;;;17.40;35.99
39715;BME280;54166;53.172;-6.552;2023-01-27T06:38:31;100904.20;;;17.43;35.96
39715;BME280;54166;53.172;-6.552;2023-01-27T06:41:00;100899.11;;;17.41;35.96
39715;BME280;54166;53.172;-6.552;2023-01-27T06:43:27;100896.51;;;17.38;35.97
39715;BME280;54166;53.172;-6.552;2023-01-27T06:45:54;100894.97;;;17.34;35.95
39715;BME280;54166;53.172;-6.552;2023-01-27T06:48:22;100891.16;;;17.33;35.96
39715;BME280;54166;53.172;-6.552;2023-01-27T06:50:49;100892.44;;;16.97;35.95
39715;BME280;54166;53.172;-6.552;2023-01-27T06:53:15;100894.68;;;17.28;35.95
39715;BME280;54166;53.172;-6.552;2023-01-27T06:55:42;100897.64;;;17.26;35.93
39715;BME280;54166;53.172;-6.552;2023-01-27T06:58:10;100894.43;;;17.23;35.93
39715;BME280;54166;53.172;-6.552;2023-01-27T07:00:38;100890.30;;;17.20;35.93
39715;BME280;54166;53.172;-6.552;2023-01-27T07:03:11;100894.08;;;17.19;35.92
39715;BME280;54166;53.172;-6.552;2023-01-27T07:05:40;100900.32;;;17.16;35.94
39715;BME280;54166;53.172;-6.552;2023-01-27T07:08:08;100901.01;;;17.15;35.92
39715;BME280;54166;53.172;-6.552;2023-01-27T07:10:36;100904.28;;;17.14;35.93
39715;BME280;54166;53.172;-6.552;2023-01-27T07:13:04;100910.74;;;17.13;35.95
39715;BME280;54166;53.172;-6.552;2023-01-27T07:15:33;100910.00;;;17.11;35.92
39715;BME280;54166;53.172;-6.552;2023-01-27T07:18:01;100902.67;;;17.09;35.89
39715;BME280;54166;53.172;-6.552;2023-01-27T07:20:30;100895.95;;;17.08;35.87
39715;BME280;54166;53.172;-6.552;2023-01-27T07:22:58;100895.24;;;17.07;35.88
39715;BME280;54166;53.172;-6.552;2023-01-27T07:25:27;100903.20;;;17.06;35.87
39715;BME280;54166;53.172;-6.552;2023-01-27T07:27:56;100905.98;;;17.04;35.86
39715;BME280;54166;53.172;-6.552;2023-01-27T07:30:24;100909.10;;;17.02;35.85
39715;BME280;54166;53.172;-6.552;2023-01-27T07:32:51;100913.28;;;17.01;35.82
39715;BME280;54166;53.172;-6.552;2023-01-27T07:35:19;100917.34;;;16.99;35.79
39715;BME280;54166;53.172;-6.552;2023-01-27T07:37:46;100923.56;;;16.65;35.76
39715;BME280;54166;53.172;-6.552;2023-01-27T07:40:13;100930.78;;;16.96;35.69
39715;BME280;54166;53.172;-6.552;2023-01-27T07:42:40;100929.86;;;16.95;35.56
39715;BME280;54166;53.172;-6.552;2023-01-27T07:45:08;100932.69;;;16.93;35.40
39715;BME280;54166;53.172;-6.552;2023-01-27T07:47:36;100935.45;;;16.92;35.28
39715;BME280;54166;53.172;-6.552;2023-01-27T07:50:04;100932.00;;;16.92;35.16
39715;BME280;54166;53.172;-6.552;2023-01-27T07:52:31;100925.65;;;16.89;35.19
39715;BME280;54166;53.172;-6.552;2023-01-27T07:54:58;100923.28;;;16.88;35.14
39715;BME280;54166;53.172;-6.552;2023-01-27T07:57:25;100925.34;;;16.86;35.03
39715;BME280;54166;53.172;-6.552;2023-01-27T07:59:52;100925.31;;;16.85;35.04
39715;BME280;54166;53.172;-6.552;2023-01-27T08:02:19;100926.66;;;16.82;35.06
39715;BME280;54166;53.172;-6.552;2023-01-27T08:04:47;100931.28;;;16.81;35.05
39715;BME280;54166;53.172;-6.552;2023-01-27T08:07:14;100932.76;;;16.81;34.89
39715;BME280;54166;53.172;-6.552;2023-01-27T08:09:41;100936.78;;;16.80;34.79
39715;BME280;54166;53.172;-6.552;2023-01-27T08:12:08;100934.85;;;16.76;34.80
39715;BME280;54166;53.172;-6.552;2023-01-27T08:14:35;100939.41;;;16.75;34.78
39715;BME280;54166;53.172;-6.552;2023-01-27T08:17:03;100943.29;;;16.74;34.68
39715;BME280;54166;53.172;-6.552;2023-01-27T08:19:31;100947.06;;;16.73;34.59
39715;BME280;54166;53.172;-6.552;2023-01-27T08:21:57;100947.59;;;16.69;34.56
39715;BME280;54166;53.172;-6.552;2023-01-27T08:24:24;100953.52;;;16.69;34.53
39715;BME280;54166;53.172;-6.552;2023-01-27T08:26:51;100959.21;;;16.67;34.48
39715;BME280;54166;53.172;-6.552;2023-01-27T08:29:18;100963.29;;;16.65;34.50
39715;BME280;54166;53.172;-6.552;2023-01-27T08:31:45;100962.75;;;16.64;34.46
39715;BME280;54166;53.172;-6.552;2023-01-27T08:34:12;100964.01;;;16.63;34.46
39715;BME280;54166;53.172;-6.552;2023-01-27T08:36:39;100968.40;;;16.61;34.43
39715;BME280;54166;53.172;-6.552;2023-01-27T08:39:08;100972.32;;;16.59;34.38
39715;BME280;54166;53.172;-6.552;2023-01-27T08:41:35;100973.39;;;16.56;34.50
39715;BME280;54166;53.172;-6.552;2023-01-27T08:44:03;100971.95;;;16.56;34.43
39715;BME280;54166;53.172;-6.552;2023-01-27T08:46:30;100975.47;;;16.93;34.41
39715;BME280;54166;53.172;-6.552;2023-01-27T08:48:58;100981.80;;;16.50;34.49
39715;BME280;54166;53.172;-6.552;2023-01-27T08:51:25;100989.96;;;16.50;34.52
39715;BME280;54166;53.172;-6.552;2023-01-27T08:53:52;100992.51;;;16.48;34.39
39715;BME280;54166;53.172;-6.552;2023-01-27T08:56:19;100992.87;;;16.47;34.37
39715;BME280;54166;53.172;-6.552;2023-01-27T08:58:47;100993.69;;;16.46;34.30
39715;BME280;54166;53.172;-6.552;2023-01-27T09:01:14;100995.09;;;16.83;34.24
39715;BME280;54166;53.172;-6.552;2023-01-27T09:03:41;101002.43;;;16.82;34.35
39715;BME280;54166;53.172;-6.552;2023-01-27T09:06:10;100996.57;;;16.40;34.45
39715;BME280;54166;53.172;-6.552;2023-01-27T09:08:39;100976.53;;;16.37;34.71
39715;BME280;54166;53.172;-6.552;2023-01-27T09:11:09;100921.32;;;16.34;34.80
39715;BME280;54166;53.172;-6.552;2023-01-27T09:13:36;100942.88;;;16.32;34.67
39715;BME280;54166;53.172;-6.552;2023-01-27T09:16:04;100957.97;;;16.31;34.83
39715;BME280;54166;53.172;-6.552;2023-01-27T09:18:31;100950.26;;;16.31;35.21
39715;BME280;54166;53.172;-6.552;2023-01-27T09:21:02;100956.02;;;16.71;35.15
39715;BME280;54166;53.172;-6.552;2023-01-27T09:23:30;100956.44;;;16.30;35.10
39715;BME280;54166;53.172;-6.552;2023-01-27T09:25:57;100946.02;;;16.29;35.32
39715;BME280;54166;53.172;-6.552;2023-01-27T09:28:24;100952.68;;;16.30;35.96
39715;BME280;54166;53.172;-6.552;2023-01-27T09:30:56;100935.11;;;16.74;35.71
39715;BME280;54166;53.172;-6.552;2023-01-27T09:33:23;100933.79;;;16.71;35.43
39715;BME280;54166;53.172;-6.552;2023-01-27T09:35:53;100925.56;;;16.29;35.73
39715;BME280;54166;53.172;-6.552;2023-01-27T09:38:23;100917.52;;;16.27;35.38
39715;BME280;54166;53.172;-6.552;2023-01-27T09:41:04;100931.97;;;16.25;35.42
39715;BME280;54166;53.172;-6.552;2023-01-27T09:43:48;100926.87;;;16.21;35.27
39715;BME280;54166;53.172;-6.552;2023-01-27T09:46:28;100924.34;;;16.20;35.31
39715;BME280;54166;53.172;-6.552;2023-01-27T09:49:13;100921.66;;;16.18;34.96
39715;BME280;54166;53.172;-6.552;2023-01-27T09:51:52;100917.85;;;16.56;34.92
39715;BME280;54166;53.172;-6.552;2023-01-27T09:54:37;100924.34;;;16.15;34.86
39715;BME280;54166;53.172;-6.552;2023-01-27T09:57:13;100917.33;;;16.14;34.78
39715;BME280;54166;53.172;-6.552;2023-01-27T09:59:54;100911.31;;;16.87;34.68
39715;BME280;54166;53.172;-6.552;2023-01-27T10:02:41;100907.32;;;16.13;34.64
39715;BME280;54166;53.172;-6.552;2023-01-27T10:05:31;100920.21;;;16.11;34.63
39715;BME280;54166;53.172;-6.552;2023-01-27T10:08:09;100924.70;;;16.81;34.63
39715;BME280;54166;53.172;-6.552;2023-01-27T10:10:51;100927.43;;;16.07;34.60
39715;BME280;54166;53.172;-6.552;2023-01-27T10:13:31;100920.67;;;16.08;34.64
39715;BME280;54166;53.172;-6.552;2023-01-27T10:16:17;100916.69;;;16.08;34.68
39715;BME280;54166;53.172;-6.552;2023-01-27T10:18:58;100911.55;;;16.13;34.45
39715;BME280;54166;53.172;-6.552;2023-01-27T10:21:38;100920.29;;;16.54;34.57
39715;BME280;54166;53.172;-6.552;2023-01-27T10:24:13;100918.30;;;16.89;34.67
39715;BME280;54166;53.172;-6.552;2023-01-27T10:26:51;100911.89;;;16.91;34.77
39715;BME280;54166;53.172;-6.552;2023-01-27T10:29:24;100909.17;;;16.57;34.91
39715;BME280;54166;53.172;-6.552;2023-01-27T10:31:56;100913.82;;;16.19;34.89
39715;BME280;54166;53.172;-6.552;2023-01-27T10:36:38;100913.32;;;16.02;35.16
39715;BME280;54166;53.172;-6.552;2023-01-27T10:39:14;100912.64;;;16.10;35.21
39715;BME280;54166;53.172;-6.552;2023-01-27T10:41:53;100908.81;;;16.23;35.15
39715;BME280;54166;53.172;-6.552;2023-01-27T10:44:40;100908.81;;;16.34;35.10
39715;BME280;54166;53.172;-6.552;2023-01-27T10:47:21;100906.74;;;16.34;35.12
39715;BME280;54166;53.172;-6.552;2023-01-27T10:49:57;100904.61;;;16.32;35.05
39715;BME280;54166;53.172;-6.552;2023-01-27T10:52:30;100904.47;;;16.35;34.98
39715;BME280;54166;53.172;-6.552;2023-01-27T10:55:04;100903.99;;;16.41;35.15
39715;BME280;54166;53.172;-6.552;2023-01-27T10:57:40;100901.35;;;16.49;34.99
39715;BME280;54166;53.172;-6.552;2023-01-27T11:00:15;100894.23;;;16.59;34.80
39715;BME280;54166;53.172;-6.552;2023-01-27T11:02:48;100889.67;;;16.78;34.64
39715;BME280;54166;53.172;-6.552;2023-01-27T11:05:29;100886.82;;;17.02;34.34
39715;BME280;54166;53.172;-6.552;2023-01-27T11:08:01;100885.88;;;17.23;34.02
39715;BME280;54166;53.172;-6.552;2023-01-27T11:10:34;100879.40;;;17.59;33.79
39715;BME280;54166;53.172;-6.552;2023-01-27T11:13:03;100879.02;;;18.02;33.34
39715;BME280;54166;53.172;-6.552;2023-01-27T11:15:32;100883.94;;;18.64;32.70
39715;BME280;54166;53.172;-6.552;2023-01-27T11:18:04;100888.28;;;18.54;32.23
39715;BME280;54166;53.172;-6.552;2023-01-27T11:20:39;100887.98;;;19.48;31.68
39715;BME280;54166;53.172;-6.552;2023-01-27T11:23:14;100887.14;;;18.92;31.25
39715;BME280;54166;53.172;-6.552;2023-01-27T11:25:46;100895.34;;;19.31;31.53
39715;BME280;54166;53.172;-6.552;2023-01-27T11:28:24;100900.82;;;19.01;31.65
39715;BME280;54166;53.172;-6.552;2023-01-27T11:31:00;100899.56;;;18.78;31.87
39715;BME280;54166;53.172;-6.552;2023-01-27T11:33:42;100899.26;;;18.77;31.92
39715;BME280;54166;53.172;-6.552;2023-01-27T11:36:12;100906.18;;;18.97;31.58
39715;BME280;54166;53.172;-6.552;2023-01-27T11:38:40;100900.51;;;18.86;31.38
39715;BME280;54166;53.172;-6.552;2023-01-27T11:41:07;100896.68;;;19.01;31.02
39715;BME280;54166;53.172;-6.552;2023-01-27T11:43:35;100899.56;;;19.43;30.97
39715;BME280;54166;53.172;-6.552;2023-01-27T11:46:05;100903.84;;;19.38;30.58
39715;BME280;54166;53.172;-6.552;2023-01-27T11:48:36;100900.88;;;19.78;30.10
39715;BME280;54166;53.172;-6.552;2023-01-27T11:51:13;100899.71;;;20.80;29.24
39715;BME280;54166;53.172;-6.552;2023-01-27T11:53:44;100897.74;;;21.58;28.39
39715;BME280;54166;53.172;-6.552;2023-01-27T11:56:17;100896.10;;;21.94;27.83
39715;BME280;54166;53.172;-6.552;2023-01-27T11:58:49;100899.53;;;22.58;27.42
39715;BME280;54166;53.172;-6.552;2023-01-27T12:01:22;100898.20;;;22.63;27.11
39715;BME280;54166;53.172;-6.552;2023-01-27T12:03:56;100899.00;;;22.62;27.09
39715;BME280;54166;53.172;-6.552;2023-01-27T12:06:32;100900.97;;;22.48;27.28
39715;BME280;54166;53.172;-6.552;2023-01-27T12:09:01;100906.17;;;22.23;27.51
39715;BME280;54166;53.172;-6.552;2023-01-27T12:11:30;100904.41;;;21.63;27.68
39715;BME280;54166;53.172;-6.552;2023-01-27T12:14:00;100895.99;;;21.47;27.50
39715;BME280;54166;53.172;-6.552;2023-01-27T12:16:40;100893.78;;;21.20;27.84
39715;BME280;54166;53.172;-6.552;2023-01-27T12:19:21;100893.98;;;20.58;28.32
39715;BME280;54166;53.172;-6.552;2023-01-27T12:21:54;100893.16;;;20.48;28.92
39715;BME280;54166;53.172;-6.552;2023-01-27T12:24:27;100889.40;;;20.15;29.24
39715;BME280;54166;53.172;-6.552;2023-01-27T12:26:56;100888.74;;;20.19;29.70
39715;BME280;54166;53.172;-6.552;2023-01-27T12:29:27;100883.20;;;19.92;29.91
39715;BME280;54166;53.172;-6.552;2023-01-27T12:31:57;100878.82;;;19.65;30.02
39715;BME280;54166;53.172;-6.552;2023-01-27T12:34:28;100872.66;;;19.42;30.25
39715;BME280;54166;53.172;-6.552;2023-01-27T12:36:58;100870.31;;;19.55;30.45
39715;BME280;54166;53.172;-6.552;2023-01-27T12:39:40;100863.40;;;19.36;30.64
39715;BME280;54166;53.172;-6.552;2023-01-27T12:42:33;100849.89;;;19.15;30.70
39715;BME280;54166;53.172;-6.552;2023-01-27T12:45:17;100851.53;;;19.28;31.04
39715;BME280;54166;53.172;-6.552;2023-01-27T12:47:55;100849.57;;;18.76;31.23
39715;BME280;54166;53.172;-6.552;2023-01-27T12:50:25;100839.28;;;18.99;31.26
39715;BME280;54166;53.172;-6.552;2023-01-27T12:53:02;100827.66;;;18.41;31.54
39715;BME280;54166;53.172;-6.552;2023-01-27T12:55:31;100820.77;;;18.69;31.78
39715;BME280;54166;53.172;-6.552;2023-01-27T12:57:59;100819.55;;;18.56;31.84